Time;durP1;ratioP1;P1;durP2;ratioP2;P2;SDS_P1;SDS_P2;PMS_P1;PMS_P2;Temp;Humidity;BMP_temperature;BMP_pressure;BME280_temperature;BME280_humidity;BME280_pressure;Samples;Min_cycle;Max_cycle;Signal;HPM_P1;HPM_P2
2022/07/08 00:01:13;;;;;;;9.50;1.70;;;;;;;13.77;78.07;101830.58;107784;1279;62547;-83
2022/07/08 00:03:40;;;;;;;8.60;1.90;;;;;;;13.74;78.37;101839.97;107621;1279;61347;-81
2022/07/08 00:06:13;;;;;;;7.40;1.40;;;;;;;13.71;78.66;101838.05;107935;1278;74106;-83
2022/07/08 00:08:40;;;;;;;8.10;1.80;;;;;;;13.67;78.80;101840.91;108003;1279;71322;-83
2022/07/08 00:11:13;;;;;;;10.50;1.90;;;;;;;13.63;79.22;101847.38;107674;1279;73214;-83
2022/07/08 00:13:40;;;;;;;10.90;2.50;;;;;;;13.58;79.21;101855.18;107709;1279;62126;-82
2022/07/08 00:16:13;;;;;;;8.90;2.10;;;;;;;13.57;79.30;101841.54;107721;1279;62656;-83
2022/07/08 00:18:40;;;;;;;10.20;1.70;;;;;;;13.52;79.48;101853.44;107512;1278;76300;-83
2022/07/08 00:21:14;;;;;;;7.50;2.00;;;;;;;13.48;79.62;101856.34;107659;1279;71075;-83
2022/07/08 00:23:40;;;;;;;15.80;3.20;;;;;;;13.43;79.95;101863.60;107936;1279;74067;-82
2022/07/08 00:26:13;;;;;;;12.20;2.10;;;;;;;13.39;80.14;101862.02;107895;1279;62742;-84
2022/07/08 00:28:40;;;;;;;9.40;1.10;;;;;;;13.38;80.04;101864.36;107604;1279;60791;-83
2022/07/08 00:31:14;;;;;;;9.80;1.90;;;;;;;13.34;80.50;101862.26;107747;1279;72878;-85
2022/07/08 00:33:40;;;;;;;6.40;1.80;;;;;;;13.31;80.49;101871.84;107700;1279;72440;-85
2022/07/08 00:36:16;;;;;;;12.60;2.30;;;;;;;13.28;80.65;101867.31;107837;1279;74184;-85
2022/07/08 00:38:43;;;;;;;10.90;2.80;;;;;;;13.24;80.83;101872.86;107715;1279;62439;-83
2022/07/08 00:41:16;;;;;;;14.30;2.50;;;;;;;13.20;80.71;101884.34;107612;1279;61524;-85
2022/07/08 00:43:45;;;;;;;7.90;1.60;;;;;;;13.17;80.97;101883.57;107576;1279;75004;-85
2022/07/08 00:46:16;;;;;;;16.30;2.00;;;;;;;13.15;81.01;101881.30;107608;1279;72843;-84
2022/07/08 00:48:43;;;;;;;11.10;2.30;;;;;;;13.11;81.35;101884.52;107726;1279;72909;-84
2022/07/08 00:51:15;;;;;;;8.70;2.10;;;;;;;13.08;81.33;101887.88;107976;1279;62015;-84
2022/07/08 00:53:46;;;;;;;11.30;1.90;;;;;;;13.04;81.16;101890.73;107919;1279;60551;-83
2022/07/08 00:56:13;;;;;;;17.30;3.90;;;;;;;13.02;81.43;101895.02;107771;1278;76202;-84
2022/07/08 00:58:40;;;;;;;8.10;1.50;;;;;;;13.00;81.21;101902.22;107622;1279;71589;-83
2022/07/08 01:01:13;;;;;;;6.50;1.10;;;;;;;12.96;81.47;101903.50;107957;1278;74035;-84
2022/07/08 01:03:41;;;;;;;12.20;2.20;;;;;;;12.95;81.49;101904.77;107709;1279;62693;-83
2022/07/08 01:06:15;;;;;;;9.10;1.60;;;;;;;12.96;81.40;101908.39;107815;1279;61572;-85
2022/07/08 01:08:43;;;;;;;7.90;2.00;;;;;;;12.94;81.45;101909.75;107856;1279;73930;-84
2022/07/08 01:11:13;;;;;;;12.90;2.30;;;;;;;12.94;81.48;101910.17;107938;1279;71622;-84
2022/07/08 01:13:40;;;;;;;11.10;2.80;;;;;;;12.93;81.59;101913.30;107653;1279;72946;-84
2022/07/08 01:16:16;;;;;;;12.60;1.90;;;;;;;12.92;81.50;101913.56;107646;1279;62916;-84
2022/07/08 01:18:43;;;;;;;3.90;1.30;;;;;;;12.91;81.64;101918.58;107204;1279;951889;-83
2022/07/08 01:21:13;;;;;;;10.10;2.00;;;;;;;12.89;81.44;101916.71;107958;1279;59242;-84
2022/07/08 01:23:40;;;;;;;8.70;2.10;;;;;;;12.87;81.87;101921.33;107704;1279;71492;-84
2022/07/08 01:26:14;;;;;;;12.80;2.90;;;;;;;12.88;81.99;101928.75;107452;1279;74326;-83
2022/07/08 01:28:43;;;;;;;10.80;1.40;;;;;;;12.88;81.76;101925.48;107922;1278;63736;-83
2022/07/08 01:31:16;;;;;;;10.00;1.60;;;;;;;12.90;81.87;101920.04;107613;1279;63049;-82
2022/07/08 01:33:42;;;;;;;3.90;1.30;;;;;;;12.92;81.89;101918.19;107926;1279;74692;-82
2022/07/08 01:36:15;;;;;;;4.00;1.20;;;;;;;12.94;81.76;101920.60;107858;1279;70770;-81
2022/07/08 01:38:43;;;;;;;8.20;2.00;;;;;;;12.97;81.39;101921.36;107941;1279;74530;-81
2022/07/08 01:41:15;;;;;;;12.40;2.00;;;;;;;12.99;81.31;101917.71;107681;1279;62969;-81
2022/07/08 01:43:42;;;;;;;6.30;1.30;;;;;;;13.02;81.15;101921.33;107950;1279;60414;-81
2022/07/08 01:46:18;;;;;;;9.70;1.80;;;;;;;13.04;80.89;101920.92;107947;1278;76293;-82
2022/07/08 01:48:45;;;;;;;5.10;1.40;;;;;;;13.06;80.76;101918.96;107944;1278;71214;-81
2022/07/08 01:51:15;;;;;;;10.30;2.00;;;;;;;13.09;80.54;101923.70;107779;1279;73018;-81
2022/07/08 01:53:42;;;;;;;8.10;1.20;;;;;;;13.10;80.09;101923.88;107915;1278;62322;-82
2022/07/08 01:56:15;;;;;;;9.00;3.90;;;;;;;13.12;80.18;101916.95;107734;1281;60113;-82
2022/07/08 01:58:42;;;;;;;9.30;1.60;;;;;;;13.13;80.19;101917.09;107571;1281;74625;-83
2022/07/08 02:01:12;;;;;;;7.20;1.50;;;;;;;13.13;80.20;101917.95;107758;1280;72650;-82
2022/07/08 02:03:40;;;;;;;12.50;1.90;;;;;;;13.13;80.18;101921.09;107937;1279;72914;-83
2022/07/08 02:06:13;;;;;;;9.80;1.70;;;;;;;13.13;80.26;101920.75;107767;1279;62386;-82
2022/07/08 02:08:39;;;;;;;10.10;2.20;;;;;;;13.14;80.35;101916.27;107811;1279;61839;-82
2022/07/08 02:14:00;;;;;;;5.30;1.20;;;;;;;13.13;80.51;101921.98;107833;1278;72945;-81
2022/07/08 02:16:27;;;;;;;8.20;1.90;;;;;;;13.13;80.47;101921.69;107764;1279;72940;-82
2022/07/08 02:18:54;;;;;;;11.10;1.70;;;;;;;13.12;80.42;101922.52;107708;1281;63510;-83
2022/07/08 02:21:21;;;;;;;12.40;2.20;;;;;;;13.11;80.83;101920.79;107493;1277;61942;-82
2022/07/08 02:23:48;;;;;;;8.10;1.30;;;;;;;13.09;81.14;101919.42;107829;1278;74593;-81
2022/07/08 02:26:15;;;;;;;5.80;1.30;;;;;;;13.05;81.25;101921.49;107966;1281;72650;-82
2022/07/08 02:28:42;;;;;;;8.00;1.40;;;;;;;13.03;81.46;101925.45;108020;1277;73052;-82
2022/07/08 02:31:15;;;;;;;6.30;1.20;;;;;;;13.01;81.59;101924.23;108000;1278;62233;-81
2022/07/08 02:33:42;;;;;;;8.50;1.90;;;;;;;12.98;81.50;101933.45;107774;1279;61947;-81
2022/07/08 02:36:12;;;;;;;5.60;1.40;;;;;;;12.99;81.44;101934.63;107960;1277;74636;-81
2022/07/08 02:38:39;;;;;;;3.90;1.50;;;;;;;12.97;81.91;101933.76;107855;1279;71572;-81
2022/07/08 02:41:06;;;;;;;7.50;1.70;;;;;;;12.96;81.71;101934.55;107733;1279;73016;-82
2022/07/08 02:43:48;;;;;;;13.80;2.40;;;;;;;12.95;82.27;101940.98;107822;1279;61932;-81
2022/07/08 02:46:21;;;;;;;12.90;2.40;;;;;;;12.92;82.08;101943.54;107708;1281;60580;-81
2022/07/08 02:48:48;;;;;;;10.10;1.60;;;;;;;12.86;82.42;101945.19;107916;1279;75989;-82
2022/07/08 02:51:14;;;;;;;11.70;2.10;;;;;;;12.82;82.46;101944.21;107773;1279;72658;-82
2022/07/08 02:53:41;;;;;;;10.10;2.80;;;;;;;12.76;82.80;101946.77;107877;1278;74131;-82
2022/07/08 02:56:15;;;;;;;11.40;1.80;;;;;;;12.71;83.11;101947.00;107833;1279;61384;-81
2022/07/08 02:58:42;;;;;;;10.10;1.60;;;;;;;12.65;83.31;101946.11;107703;1279;61296;-82
2022/07/08 03:01:15;;;;;;;11.10;2.50;;;;;;;12.59;83.66;101947.64;107943;1279;76260;-81
2022/07/08 03:03:42;;;;;;;12.30;2.50;;;;;;;12.54;83.97;101952.81;107612;1280;71690;-81
2022/07/08 03:06:15;;;;;;;8.50;1.40;;;;;;;12.49;84.35;101950.44;107525;1281;72836;-82
2022/07/08 03:08:42;;;;;;;9.10;1.80;;;;;;;12.46;84.67;101953.23;107908;1278;62238;-82
2022/07/08 03:11:16;;;;;;;8.30;1.60;;;;;;;12.44;84.88;101957.46;107943;1278;60595;-82
2022/07/08 03:13:43;;;;;;;10.20;1.80;;;;;;;12.45;84.84;101956.93;107735;1281;75406;-82
2022/07/08 03:16:16;;;;;;;9.10;1.30;;;;;;;12.46;84.89;101958.71;107555;1280;71532;-82
2022/07/08 03:18:43;;;;;;;11.70;1.80;;;;;;;12.49;84.76;101961.65;107614;1281;74049;-82
2022/07/08 03:21:13;;;;;;;15.40;1.90;;;;;;;12.52;84.56;101967.23;107577;1279;62117;-81
2022/07/08 03:23:41;;;;;;;7.20;2.30;;;;;;;12.56;84.46;101971.24;107935;1277;60730;-82
2022/07/08 03:26:15;;;;;;;10.20;2.40;;;;;;;12.58;84.13;101972.73;107957;1280;75729;-82
2022/07/08 03:28:42;;;;;;;8.80;1.20;;;;;;;12.61;84.16;101970.13;107949;1279;71535;-82
2022/07/08 03:31:15;;;;;;;12.90;1.80;;;;;;;12.63;83.88;101966.08;107893;1279;73088;-82
2022/07/08 03:33:42;;;;;;;7.00;2.10;;;;;;;12.64;83.53;101970.20;107800;1280;63143;-83
2022/07/08 03:36:18;;;;;;;16.90;2.90;;;;;;;12.65;83.54;101974.67;107716;1280;60444;-82
2022/07/08 03:38:45;;;;;;;6.00;1.40;;;;;;;12.67;83.59;101975.45;107935;1278;76427;-82
2022/07/08 03:41:21;;;;;;;8.10;1.90;;;;;;;12.68;83.46;101980.47;107776;1278;72285;-83
2022/07/08 03:43:52;;;;;;;11.00;2.10;;;;;;;12.71;83.25;101982.85;107969;1279;73021;-82
2022/07/08 03:46:20;;;;;;;6.10;1.50;;;;;;;12.73;83.14;101985.09;107745;1279;62059;-82
2022/07/08 03:48:47;;;;;;;3.80;1.00;;;;;;;12.75;82.91;101984.05;107977;1277;61792;-82
2022/07/08 03:51:20;;;;;;;7.60;1.30;;;;;;;12.76;82.73;101993.36;107779;1278;75178;-82
2022/07/08 03:53:47;;;;;;;8.90;1.60;;;;;;;12.76;82.61;101992.84;107949;1278;72708;-82
2022/07/08 03:56:14;;;;;;;7.00;1.80;;;;;;;12.77;82.54;101995.57;107724;1278;73124;-82
2022/07/08 03:58:41;;;;;;;8.10;1.70;;;;;;;12.78;82.51;102002.90;107583;1279;63558;-82
2022/07/08 04:01:14;;;;;;;13.10;3.40;;;;;;;12.79;82.31;102005.94;107950;1278;60674;-82
2022/07/08 04:03:41;;;;;;;7.90;2.00;;;;;;;12.82;82.09;102013.41;107889;1279;75492;-82
2022/07/08 04:06:18;;;;;;;7.10;1.50;;;;;;;12.85;82.02;102013.10;107705;1278;71852;-82
2022/07/08 04:08:45;;;;;;;4.40;1.60;;;;;;;12.90;81.67;102016.86;107759;1279;73077;-82
2022/07/08 04:11:13;;;;;;;5.10;1.50;;;;;;;12.94;81.72;102020.58;108010;1277;64958;-82
2022/07/08 04:13:40;;;;;;;4.80;1.10;;;;;;;13.00;81.20;102023.33;107759;1278;59703;-85
2022/07/08 04:16:13;;;;;;;8.10;1.40;;;;;;;13.06;80.76;102020.01;107657;1279;74949;-85
2022/07/08 04:18:41;;;;;;;8.50;2.30;;;;;;;13.15;80.83;102025.38;107612;1279;71053;-85
2022/07/08 04:21:11;;;;;;;9.40;1.40;;;;;;;13.21;80.35;102026.88;107781;1279;74079;-84
2022/07/08 04:23:40;;;;;;;4.60;1.10;;;;;;;13.27;79.89;102029.30;107735;1279;62341;-84
2022/07/08 04:26:10;;;;;;;5.90;1.60;;;;;;;13.33;79.98;102028.35;107918;1278;60503;-85
2022/07/08 04:28:37;;;;;;;7.60;1.80;;;;;;;13.38;79.76;102032.16;107634;1279;76638;-83
2022/07/08 04:31:04;;;;;;;8.30;1.20;;;;;;;13.42;79.24;102035.48;107791;1279;72530;-84
2022/07/08 04:33:40;;;;;;;5.80;1.50;;;;;;;13.46;79.08;102039.36;107668;1277;74208;-84
2022/07/08 04:36:10;;;;;;;8.60;1.00;;;;;;;13.47;78.74;102038.36;107967;1277;63714;-84
2022/07/08 04:38:37;;;;;;;6.90;1.10;;;;;;;13.51;78.59;102039.54;107619;1279;60704;-83
2022/07/08 04:41:04;;;;;;;12.60;2.00;;;;;;;13.55;78.66;102038.47;107935;1277;75155;-84
2022/07/08 04:43:39;;;;;;;6.50;1.20;;;;;;;13.59;78.62;102047.60;107842;1279;71539;-84
2022/07/08 04:46:12;;;;;;;12.00;1.70;;;;;;;13.61;78.10;102050.08;107658;1279;74003;-84
2022/07/08 04:48:40;;;;;;;5.50;1.10;;;;;;;13.65;77.85;102043.59;107624;1279;63547;-85
2022/07/08 04:51:10;;;;;;;6.40;1.00;;;;;;;13.68;78.17;102048.80;107832;1277;61404;-84
2022/07/08 04:53:36;;;;;;;8.50;1.50;;;;;;;13.72;78.13;102047.81;107914;1279;74980;-84
2022/07/08 04:56:12;;;;;;;;;;;;;;;13.76;78.30;102057.92;107668;1278;70891;-84
2022/07/08 04:58:39;;;;;;;;;;;;;;;13.77;77.77;102055.34;107774;1278;73053;-84
2022/07/08 05:01:08;;;;;;;5.50;1.20;;;;;;;13.77;78.43;102054.79;107983;1278;61937;-84
2022/07/08 05:03:35;;;;;;;10.50;1.90;;;;;;;13.80;78.52;102055.67;107889;1279;60679;-84
2022/07/08 05:06:03;;;;;;;6.90;1.60;;;;;;;13.91;78.25;102060.20;107700;1279;75775;-84
2022/07/08 05:08:37;;;;;;;11.40;2.20;;;;;;;14.04;77.82;102056.55;107582;1279;72596;-84
2022/07/08 05:11:10;;;;;;;11.10;2.00;;;;;;;14.14;77.14;102063.77;107893;1277;73063;-84
2022/07/08 05:13:37;;;;;;;10.60;2.00;;;;;;;14.28;76.86;102060.80;107875;1278;62945;-84
2022/07/08 05:16:13;;;;;;;10.70;2.10;;;;;;;14.37;76.32;102059.42;107622;1278;59432;-84
2022/07/08 05:18:41;;;;;;;9.70;1.50;;;;;;;14.43;75.35;102063.77;108152;1278;76105;-84
2022/07/08 05:21:18;;;;;;;12.90;2.10;;;;;;;14.48;75.36;102057.66;107955;1278;72709;-84
2022/07/08 05:23:46;;;;;;;10.80;2.40;;;;;;;14.55;74.98;102062.66;108308;1279;73149;-84
2022/07/08 05:26:14;;;;;;;8.00;1.60;;;;;;;14.59;74.49;102067.37;108421;1277;61173;-84
2022/07/08 05:28:43;;;;;;;7.30;2.10;;;;;;;14.64;74.48;102058.78;108095;1279;59213;-85
2022/07/08 05:31:11;;;;;;;8.20;1.60;;;;;;;14.73;74.13;102063.55;107928;1277;74416;-86
2022/07/08 05:33:38;;;;;;;10.80;1.70;;;;;;;14.80;73.88;102061.86;107850;1279;71433;-85
2022/07/08 05:36:11;;;;;;;9.30;2.20;;;;;;;14.87;73.64;102065.52;107932;1277;72912;-85
2022/07/08 05:38:38;;;;;;;9.40;2.10;;;;;;;14.92;73.35;102074.07;107759;1279;62693;-85
2022/07/08 05:41:05;;;;;;;10.90;1.70;;;;;;;14.95;72.66;102074.77;107581;1279;60802;-85
2022/07/08 05:43:41;;;;;;;9.20;1.70;;;;;;;15.00;72.33;102077.26;107822;1279;76916;-85
2022/07/08 05:46:11;;;;;;;11.60;2.10;;;;;;;15.03;72.20;102074.25;107887;1277;71495;-85
2022/07/08 05:48:38;;;;;;;8.30;2.30;;;;;;;15.09;72.22;102072.39;108040;1278;73075;-85
2022/07/08 05:51:11;;;;;;;10.50;2.30;;;;;;;15.14;71.70;102077.48;107561;1279;62003;-86
2022/07/08 05:53:45;;;;;;;10.20;2.00;;;;;;;15.20;71.78;102075.74;107795;1279;62868;-85
2022/07/08 05:56:12;;;;;;;9.90;1.70;;;;;;;15.25;71.22;102089.45;107893;1279;76036;-85
2022/07/08 05:58:39;;;;;;;10.50;2.00;;;;;;;15.26;71.10;102084.25;107712;1280;70180;-85
2022/07/08 06:01:12;;;;;;;8.20;1.70;;;;;;;15.28;70.71;102084.52;108011;1277;72963;-85
2022/07/08 06:03:39;;;;;;;8.70;1.90;;;;;;;15.29;70.22;102084.70;107641;1279;62462;-85
2022/07/08 06:06:09;;;;;;;9.10;2.00;;;;;;;15.30;69.83;102089.05;107773;1279;60712;-85
2022/07/08 06:08:36;;;;;;;7.80;1.70;;;;;;;15.29;69.93;102084.04;107774;1279;76583;-85
2022/07/08 06:11:04;;;;;;;11.00;1.80;;;;;;;15.32;69.77;102085.28;107894;1278;72717;-84
2022/07/08 06:13:39;;;;;;;9.20;1.80;;;;;;;15.39;70.02;102086.70;107980;1279;72978;-85
2022/07/08 06:16:11;;;;;;;8.40;1.50;;;;;;;15.47;69.86;102090.33;107975;1277;62329;-85
2022/07/08 06:18:38;;;;;;;9.20;1.70;;;;;;;15.48;69.88;102091.52;107824;1279;59123;-85
2022/07/08 06:21:11;;;;;;;7.80;1.90;;;;;;;15.58;70.16;102088.96;107649;1279;75800;-82
2022/07/08 06:23:38;;;;;;;7.60;1.50;;;;;;;15.63;69.88;102093.02;107960;1278;71352;-82
2022/07/08 06:26:12;;;;;;;8.00;1.80;;;;;;;15.65;69.38;102099.23;107860;1279;73726;-83
2022/07/08 06:28:38;;;;;;;8.60;1.30;;;;;;;15.68;69.57;102100.70;107936;1279;62776;-84
2022/07/08 06:31:09;;;;;;;8.30;1.60;;;;;;;15.70;69.39;102106.35;107828;1279;60004;-83
2022/07/08 06:33:36;;;;;;;8.40;1.90;;;;;;;15.63;69.39;102108.45;107935;1279;74973;-84
2022/07/08 06:36:03;;;;;;;6.90;1.90;;;;;;;15.70;69.52;102110.63;107663;1279;70485;-84
2022/07/08 06:38:30;;;;;;;9.10;1.80;;;;;;;15.78;69.59;102110.23;107914;1279;72547;-84
2022/07/08 06:40:58;;;;;;;8.90;1.70;;;;;;;15.87;69.46;102107.95;107631;1279;63380;-83
2022/07/08 06:43:25;;;;;;;10.20;2.40;;;;;;;15.99;68.85;102117.20;108178;1279;61420;-84
2022/07/08 06:45:52;;;;;;;8.40;1.60;;;;;;;16.15;67.67;102114.13;108198;1279;74960;-83
2022/07/08 06:48:19;;;;;;;8.00;1.60;;;;;;;16.23;67.15;102112.97;108058;1279;71352;-83
2022/07/08 06:50:46;;;;;;;8.30;1.60;;;;;;;16.35;66.78;102110.00;107856;1279;72963;-83
2022/07/08 06:53:13;;;;;;;8.60;2.00;;;;;;;16.49;66.92;102108.06;107585;1279;63087;-84
2022/07/08 06:55:40;;;;;;;7.30;1.40;;;;;;;16.58;65.89;102119.94;107641;1279;60453;-83
2022/07/08 06:58:07;;;;;;;7.40;1.50;;;;;;;16.59;65.07;102119.49;108043;1279;73801;-83
2022/07/08 07:00:34;;;;;;;6.10;1.40;;;;;;;16.65;64.58;102118.45;107834;1279;71439;-84
2022/07/08 07:03:01;;;;;;;6.30;1.40;;;;;;;16.80;63.73;102119.81;107776;1279;72110;-83
2022/07/08 07:05:28;;;;;;;5.80;1.30;;;;;;;16.83;61.16;102128.66;108013;1278;61959;-83
2022/07/08 07:07:55;;;;;;;8.90;1.60;;;;;;;16.76;61.10;102127.86;107911;1279;60728;-83
2022/07/08 07:10:21;;;;;;;6.90;1.40;;;;;;;16.73;61.81;102134.81;107922;1277;76236;-83
2022/07/08 07:12:48;;;;;;;5.90;1.40;;;;;;;16.71;62.04;102130.21;108085;1277;71354;-83
2022/07/08 07:15:15;;;;;;;7.30;1.20;;;;;;;16.72;60.26;102136.58;107958;1279;72670;-84
2022/07/08 07:17:42;;;;;;;7.10;1.20;;;;;;;16.77;59.54;102134.23;107981;1279;61462;-83
2022/07/08 07:20:10;;;;;;;6.10;1.10;;;;;;;16.79;59.94;102135.34;108047;1279;59970;-83
2022/07/08 07:22:37;;;;;;;5.90;1.30;;;;;;;16.78;60.23;102137.51;107657;1279;75468;-83
2022/07/08 07:25:05;;;;;;;4.80;1.10;;;;;;;16.80;60.53;102137.30;107790;1279;69773;-83
2022/07/08 07:27:38;;;;;;;5.70;1.20;;;;;;;16.79;60.06;102148.05;107750;1279;72239;-83
2022/07/08 07:30:05;;;;;;;4.50;1.00;;;;;;;16.79;60.18;102137.95;107974;1278;61961;-83
2022/07/08 07:32:32;;;;;;;6.20;1.30;;;;;;;16.78;60.34;102139.51;107750;1279;60314;-83
2022/07/08 07:34:59;;;;;;;8.00;1.50;;;;;;;16.87;60.39;102144.17;108014;1279;74927;-82
2022/07/08 07:37:26;;;;;;;5.90;1.10;;;;;;;17.04;59.92;102143.93;107833;1279;71435;-83
2022/07/08 07:39:53;;;;;;;6.30;1.30;;;;;;;17.11;59.34;102142.91;108081;1277;73453;-83
2022/07/08 07:42:20;;;;;;;7.30;1.50;;;;;;;17.22;59.57;102147.17;108012;1277;62614;-83
2022/07/08 07:44:47;;;;;;;8.50;2.00;;;;;;;17.19;59.29;102152.57;107812;1277;60396;-83
2022/07/08 07:47:14;;;;;;;8.10;1.80;;;;;;;17.10;59.30;102151.00;108035;1277;74956;-83
2022/07/08 07:49:41;;;;;;;7.40;1.40;;;;;;;17.20;60.20;102145.07;107918;1277;71679;-83
2022/07/08 07:52:08;;;;;;;7.90;1.20;;;;;;;17.48;60.31;102140.24;107870;1279;72901;-82
2022/07/08 07:54:35;;;;;;;5.70;1.30;;;;;;;17.68;59.30;102144.17;107967;1277;62079;-83
2022/07/08 07:57:02;;;;;;;7.20;1.60;;;;;;;17.68;58.88;102154.37;107634;1277;60635;-83
2022/07/08 07:59:29;;;;;;;9.60;1.50;;;;;;;17.70;58.40;102146.15;107885;1278;75417;-82
2022/07/08 08:01:56;;;;;;;6.40;1.50;;;;;;;17.76;58.39;102152.29;107627;1279;72479;-83
2022/07/08 08:04:23;;;;;;;4.70;1.30;;;;;;;17.79;58.61;102160.48;107876;1279;73045;-83
2022/07/08 08:06:50;;;;;;;6.10;1.90;;;;;;;17.94;58.87;102151.16;108007;1279;61880;-83
2022/07/08 08:09:21;;;;;;;7.40;1.40;;;;;;;18.11;57.99;102161.38;107910;1279;61262;-83
2022/07/08 08:11:48;;;;;;;5.40;1.50;;;;;;;18.24;57.67;102165.23;107632;1279;76019;-82
2022/07/08 08:14:15;;;;;;;5.70;1.20;;;;;;;18.13;57.07;102165.46;108021;1279;71357;-83
2022/07/08 08:16:42;;;;;;;8.70;1.40;;;;;;;18.07;57.05;102172.98;107765;1279;74091;-83
2022/07/08 08:19:08;;;;;;;8.80;1.60;;;;;;;18.20;57.55;102162.23;108066;1279;61982;-83
2022/07/08 08:21:36;;;;;;;6.10;1.40;;;;;;;18.37;57.12;102156.29;108009;1279;59504;-83
2022/07/08 08:24:04;;;;;;;4.60;1.20;;;;;;;18.29;56.47;102163.52;107867;1279;75944;-83
2022/07/08 08:26:31;;;;;;;5.80;1.30;;;;;;;18.26;56.58;102151.16;107747;1279;72935;-83
2022/07/08 08:28:58;;;;;;;6.60;1.20;;;;;;;18.21;56.71;102153.20;107855;1279;74184;-83
2022/07/08 08:31:25;;;;;;;7.40;1.60;;;;;;;18.30;57.11;102150.64;108029;1279;62169;-83
2022/07/08 08:33:53;;;;;;;6.90;1.40;;;;;;;18.55;56.79;102150.10;107870;1279;60888;-82
2022/07/08 08:36:20;;;;;;;4.80;1.10;;;;;;;18.66;56.44;102156.04;108056;1279;74244;-83
2022/07/08 08:38:49;;;;;;;7.40;1.70;;;;;;;18.45;56.73;102147.20;108016;1277;71445;-82
2022/07/08 08:41:16;;;;;;;6.30;1.30;;;;;;;18.23;57.20;102145.03;107961;1278;73173;-83
2022/07/08 08:43:43;;;;;;;6.20;1.00;;;;;;;18.17;57.22;102145.67;107820;1279;62330;-83
2022/07/08 08:46:17;;;;;;;8.50;1.30;;;;;;;18.26;57.11;102151.73;108069;1278;59615;-83
2022/07/08 08:48:46;;;;;;;7.30;1.80;;;;;;;18.50;57.06;102143.48;107763;1279;74368;-83
2022/07/08 08:51:17;;;;;;;6.50;1.70;;;;;;;18.68;55.76;102150.73;108038;1279;71414;-83
2022/07/08 08:53:45;;;;;;;8.60;1.50;;;;;;;18.79;55.72;102144.46;107971;1279;72153;-82
2022/07/08 08:56:14;;;;;;;6.50;1.20;;;;;;;18.91;55.48;102140.92;107682;1279;62368;-83
2022/07/08 08:58:46;;;;;;;9.50;1.30;;;;;;;18.87;56.25;102148.43;108034;1279;61752;-83
2022/07/08 09:01:15;;;;;;;6.20;1.40;;;;;;;18.67;56.16;102151.05;108080;1278;75103;-82
2022/07/08 09:03:42;;;;;;;6.70;1.20;;;;;;;18.80;56.65;102147.03;107996;1279;72613;-83
2022/07/08 09:06:10;;;;;;;7.90;1.60;;;;;;;18.92;56.02;102144.59;107971;1279;71945;-83
2022/07/08 09:08:37;;;;;;;5.90;1.30;;;;;;;19.06;55.50;102144.59;107938;1279;59878;-83
2022/07/08 09:11:05;;;;;;;5.70;1.20;;;;;;;19.28;55.19;102148.06;107976;1279;60697;-82
2022/07/08 09:13:32;;;;;;;4.90;1.10;;;;;;;19.26;54.55;102146.97;107911;1279;74691;-83
2022/07/08 09:16:07;;;;;;;6.90;1.70;;;;;;;19.13;55.49;102135.42;108128;1277;72082;-83
2022/07/08 09:18:51;;;;;;;5.80;1.40;;;;;;;19.09;54.88;102143.88;108001;1279;73495;-83
2022/07/08 09:21:28;;;;;;;7.80;1.60;;;;;;;19.21;54.74;102135.67;107882;1279;60379;-83
2022/07/08 09:23:56;;;;;;;6.00;1.70;;;;;;;19.43;54.14;102135.85;108133;1279;60332;-82
2022/07/08 09:26:28;;;;;;;6.40;1.30;;;;;;;19.62;53.75;102139.23;107938;1279;76457;-83
2022/07/08 09:28:57;;;;;;;5.90;1.40;;;;;;;19.82;53.20;102135.65;108091;1278;70846;-83
2022/07/08 09:31:34;;;;;;;7.30;1.60;;;;;;;19.72;53.19;102132.98;107677;1279;74380;-83
2022/07/08 09:34:05;;;;;;;6.10;1.40;;;;;;;19.69;53.92;102138.45;107885;1279;59893;-84
2022/07/08 09:36:49;;;;;;;4.80;1.20;;;;;;;19.77;53.81;102144.16;107679;1279;62396;-81
2022/07/08 09:39:23;;;;;;;6.20;1.10;;;;;;;19.76;53.02;102148.52;108276;1277;76054;-81
2022/07/08 09:41:50;;;;;;;5.70;1.20;;;;;;;19.79;52.07;102141.68;108257;1279;72422;-83
2022/07/08 09:44:22;;;;;;;5.70;1.40;;;;;;;19.87;52.60;102138.54;107984;1279;72939;-84
2022/07/08 09:46:49;;;;;;;4.70;1.30;;;;;;;20.16;52.31;102139.37;108098;1276;60983;-80
2022/07/08 09:49:29;;;;;;;5.90;1.10;;;;;;;20.46;51.93;102130.05;108132;1279;60368;-81
2022/07/08 09:51:57;;;;;;;6.70;1.30;;;;;;;20.63;51.68;102133.36;107727;1279;75798;-82
2022/07/08 09:54:26;;;;;;;8.90;2.00;;;;;;;20.78;50.89;102142.96;107683;1279;72520;-81
2022/07/08 09:57:08;;;;;;;6.40;1.20;;;;;;;20.82;50.42;102140.98;107840;1279;74047;-81
2022/07/08 09:59:36;;;;;;;4.70;1.00;;;;;;;20.87;51.09;102133.95;107817;1277;60437;-82
2022/07/08 10:02:04;;;;;;;5.00;1.10;;;;;;;20.98;50.40;102132.95;108065;1279;60397;-82
2022/07/08 10:04:31;;;;;;;8.30;1.50;;;;;;;21.18;49.96;102125.43;108057;1276;72838;-82
2022/07/08 10:06:58;;;;;;;5.60;1.60;;;;;;;21.38;50.11;102130.07;107694;1279;72659;-82
2022/07/08 10:09:26;;;;;;;5.90;1.20;;;;;;;21.37;49.20;102144.34;107683;1279;74208;-81
2022/07/08 10:11:53;;;;;;;7.30;1.50;;;;;;;21.26;49.48;102138.80;108225;1279;60356;-82
2022/07/08 10:14:20;;;;;;;5.30;1.20;;;;;;;21.25;50.14;102132.02;108273;1279;60823;-82
2022/07/08 10:16:48;;;;;;;5.80;1.20;;;;;;;21.26;50.46;102134.82;108284;1279;75104;-81
2022/07/08 10:19:31;;;;;;;6.50;1.40;;;;;;;21.29;50.07;102135.59;108149;1279;71336;-82
2022/07/08 10:22:03;;;;;;;7.00;1.40;;;;;;;21.21;50.37;102137.02;108419;1279;72982;-82
2022/07/08 10:24:32;;;;;;;5.60;1.50;;;;;;;21.15;50.60;102145.09;108275;1277;60642;-82
2022/07/08 10:27:01;;;;;;;6.80;1.60;;;;;;;21.14;50.45;102141.11;108160;1277;59495;-82
2022/07/08 10:29:29;;;;;;;6.20;1.30;;;;;;;21.12;50.65;102145.77;108073;1279;75344;-82
2022/07/08 10:31:57;;;;;;;8.00;1.40;;;;;;;21.21;50.21;102141.88;108342;1279;72277;-83
2022/07/08 10:34:33;;;;;;;5.10;1.30;;;;;;;21.37;50.20;102139.62;108390;1279;73087;-81
2022/07/08 10:37:02;;;;;;;9.00;1.70;;;;;;;21.42;50.05;102142.94;108325;1279;58826;-81
2022/07/08 10:39:31;;;;;;;6.10;1.20;;;;;;;21.56;50.14;102143.39;108380;1278;59768;-82
2022/07/08 10:42:00;;;;;;;6.00;1.50;;;;;;;21.60;49.82;102148.25;107941;1279;75450;-82
2022/07/08 10:44:45;;;;;;;6.70;1.50;;;;;;;21.67;49.99;102145.73;107807;1278;71491;-82
2022/07/08 10:47:15;;;;;;;6.20;1.20;;;;;;;21.72;49.89;102150.04;108167;1279;73143;-82
2022/07/08 10:49:47;;;;;;;4.60;1.00;;;;;;;21.67;49.90;102148.60;107890;1279;59858;-81
2022/07/08 10:52:15;;;;;;;3.80;1.20;;;;;;;21.54;49.54;102152.55;107852;1279;60121;-82
2022/07/08 10:54:43;;;;;;;4.50;1.10;;;;;;;21.41;49.85;102146.91;107960;1279;75088;-82
2022/07/08 10:57:25;;;;;;;4.20;1.50;;;;;;;21.38;50.01;102153.02;107874;1279;72984;-82
2022/07/08 11:00:09;;;;;;;4.50;1.00;;;;;;;21.51;50.40;102144.48;108078;1278;73755;-82
2022/07/08 11:02:41;;;;;;;3.40;0.80;;;;;;;21.56;49.79;102149.20;108056;1279;61732;-82
2022/07/08 11:05:32;;;;;;;6.00;1.80;;;;;;;21.55;50.10;102146.23;108040;1277;60641;-82
2022/07/08 11:08:34;;;;;;;5.80;1.20;;;;;;;21.68;50.37;102146.10;107945;1279;75942;-82
2022/07/08 11:11:03;;;;;;;4.10;1.20;;;;;;;21.66;50.37;102153.59;107112;1287;73335;-83
2022/07/08 11:13:30;;;;;;;5.70;1.30;;;;;;;21.57;50.15;102148.34;107750;1279;71830;-82
2022/07/08 11:16:04;;;;;;;4.50;1.10;;;;;;;21.65;50.38;102145.88;107863;1279;61941;-83
2022/07/08 11:18:32;;;;;;;5.90;1.20;;;;;;;21.91;50.49;102142.59;107869;1279;61165;-82
2022/07/08 11:21:01;;;;;;;7.10;1.30;;;;;;;21.85;49.86;102151.14;107757;1279;75048;-82
2022/07/08 11:23:28;;;;;;;7.10;1.60;;;;;;;21.66;50.26;102150.48;107553;1279;71973;-83
2022/07/08 11:25:57;;;;;;;4.70;1.10;;;;;;;21.48;50.83;102152.06;107786;1279;73637;-82
2022/07/08 11:28:24;;;;;;;6.70;1.30;;;;;;;21.64;50.74;102151.27;108068;1279;60912;-83
2022/07/08 11:30:51;;;;;;;7.20;1.40;;;;;;;22.00;50.27;102150.48;107997;1278;59595;-82